Time;durP1;ratioP1;P1;durP2;ratioP2;P2;SDS_P1;SDS_P2;PMS_P1;PMS_P2;Temp;Humidity;BMP_temperature;BMP_pressure;BME280_temperature;BME280_humidity;BME280_pressure;Samples;Min_cycle;Max_cycle;Signal;HPM_P1;HPM_P2
2021/08/13 00:01:32;;;;;;;17.52;9.45;;;16.50;99.90;;;;;;4994140;28;20109;-74
2021/08/13 00:03:58;;;;;;;16.73;9.13;;;16.30;99.90;;;;;;5009216;28;20028;-75
2021/08/13 00:06:23;;;;;;;16.95;9.25;;;16.30;99.90;;;;;;5012510;28;20064;-75
2021/08/13 00:08:49;;;;;;;18.15;10.13;;;16.20;99.90;;;;;;5008624;28;20108;-75
2021/08/13 00:11:15;;;;;;;19.65;9.00;;;16.30;99.90;;;;;;5014954;28;20079;-75
2021/08/13 00:13:41;;;;;;;18.02;10.27;;;16.40;99.90;;;;;;5009494;28;20540;-75
2021/08/13 00:16:06;;;;;;;21.20;10.10;;;16.40;99.90;;;;;;5012902;28;20442;-75
2021/08/13 00:18:32;;;;;;;18.17;10.25;;;16.30;99.90;;;;;;5013907;28;20373;-74
2021/08/13 00:20:57;;;;;;;20.80;9.73;;;16.20;99.90;;;;;;5012380;28;20040;-74
2021/08/13 00:23:23;;;;;;;19.15;9.85;;;16.10;99.90;;;;;;5011549;28;20510;-75
2021/08/13 00:25:49;;;;;;;19.05;9.60;;;16.10;99.90;;;;;;4994950;28;20101;-75
2021/08/13 00:28:15;;;;;;;19.13;10.50;;;15.90;99.90;;;;;;5012795;28;20025;-75
2021/08/13 00:30:42;;;;;;;19.58;10.32;;;15.90;99.90;;;;;;5011731;28;20033;-74
2021/08/13 00:33:07;;;;;;;17.63;9.82;;;15.80;99.90;;;;;;5012063;28;20049;-74
2021/08/13 00:35:33;;;;;;;20.48;10.20;;;15.80;99.90;;;;;;5012062;28;20080;-75
2021/08/13 00:37:58;;;;;;;19.77;10.02;;;15.70;99.90;;;;;;5010956;28;20033;-75
2021/08/13 00:40:24;;;;;;;22.80;10.68;;;15.70;99.90;;;;;;5011988;28;20032;-75
2021/08/13 00:42:50;;;;;;;21.77;10.70;;;15.60;99.90;;;;;;5011172;28;20037;-75
2021/08/13 00:45:16;;;;;;;18.20;10.05;;;15.70;99.90;;;;;;4994184;28;20056;-75
2021/08/13 00:47:41;;;;;;;19.38;10.23;;;15.70;99.90;;;;;;5011052;28;20601;-75
2021/08/13 00:50:08;;;;;;;20.83;10.38;;;15.60;99.90;;;;;;5015983;28;20044;-75
2021/08/13 00:52:34;;;;;;;21.27;9.55;;;15.60;99.90;;;;;;5011571;28;20030;-75
2021/08/13 00:55:00;;;;;;;16.50;9.57;;;15.60;99.90;;;;;;4996891;28;20087;-76
2021/08/13 00:57:25;;;;;;;20.38;10.40;;;15.50;99.90;;;;;;4994546;28;20037;-75
2021/08/13 00:59:51;;;;;;;17.92;9.50;;;15.50;99.90;;;;;;4995339;28;20037;-75
2021/08/13 01:02:17;;;;;;;18.50;10.43;;;15.60;99.90;;;;;;5013466;28;20362;-75
2021/08/13 01:04:43;;;;;;;20.55;10.85;;;15.70;99.90;;;;;;5011418;28;20473;-75
2021/08/13 01:07:09;;;;;;;18.63;10.25;;;15.70;99.90;;;;;;5012449;28;20050;-75
2021/08/13 01:09:36;;;;;;;21.38;10.93;;;15.70;99.90;;;;;;5016948;28;20481;-74
2021/08/13 01:12:23;;;;;;;21.73;10.75;;;15.70;99.90;;;;;;5012916;28;20100;-75
2021/08/13 01:15:10;;;;;;;20.48;10.48;;;15.90;99.90;;;;;;5008261;28;20021;-75
2021/08/13 01:17:38;;;;;;;19.27;10.57;;;15.90;99.90;;;;;;5013162;28;20032;-76
2021/08/13 01:20:22;;;;;;;21.85;11.48;;;15.90;99.90;;;;;;5016270;28;20045;-75
2021/08/13 01:23:05;;;;;;;20.67;11.15;;;15.80;99.90;;;;;;5004910;28;20128;-75
2021/08/13 01:25:34;;;;;;;19.88;10.20;;;15.70;99.90;;;;;;5011052;28;20022;-75
2021/08/13 01:28:27;;;;;;;21.42;9.93;;;15.80;99.90;;;;;;5010946;28;20117;-75
2021/08/13 01:30:53;;;;;;;21.73;9.73;;;15.70;99.90;;;;;;4996320;28;20037;-75
2021/08/13 01:33:20;;;;;;;19.42;10.43;;;15.60;99.90;;;;;;5010250;28;20033;-76
2021/08/13 01:35:47;;;;;;;18.85;10.18;;;15.60;99.90;;;;;;5005046;28;20022;-75
2021/08/13 01:38:21;;;;;;;19.98;9.88;;;15.60;99.90;;;;;;5010744;28;20029;-75
2021/08/13 01:40:49;;;;;;;18.98;10.25;;;15.50;99.90;;;;;;5003640;28;20034;-75
2021/08/13 01:43:17;;;;;;;18.92;10.20;;;15.50;99.90;;;;;;5015705;28;20470;-76
2021/08/13 01:45:45;;;;;;;19.90;10.45;;;15.70;99.90;;;;;;5018338;28;20037;-75
2021/08/13 01:48:11;;;;;;;16.63;10.05;;;15.70;99.90;;;;;;5008117;28;20104;-75
2021/08/13 01:50:39;;;;;;;20.63;10.27;;;15.90;99.90;;;;;;5010750;28;20045;-75
2021/08/13 01:53:06;;;;;;;20.58;9.73;;;15.90;99.90;;;;;;5009517;28;20030;-75
2021/08/13 01:55:32;;;;;;;19.23;9.40;;;16.10;99.90;;;;;;5010536;28;20031;-75
2021/08/13 01:57:59;;;;;;;19.63;9.75;;;16.00;99.90;;;;;;5012665;28;20143;-75
2021/08/13 02:00:26;;;;;;;18.30;10.05;;;15.80;99.90;;;;;;5010188;28;20033;-76
2021/08/13 02:02:52;;;;;;;24.70;10.80;;;15.70;99.90;;;;;;5009350;28;20100;-76
2021/08/13 02:05:22;;;;;;;19.02;10.23;;;15.70;99.90;;;;;;5010900;28;20018;-75
2021/08/13 02:07:48;;;;;;;18.77;9.80;;;15.70;99.90;;;;;;5008238;28;20018;-75
2021/08/13 02:10:15;;;;;;;17.45;9.52;;;15.90;99.90;;;;;;5012045;28;20481;-75
2021/08/13 02:12:40;;;;;;;21.50;10.20;;;15.70;99.90;;;;;;5010435;28;20045;-75
2021/08/13 02:15:10;;;;;;;20.98;9.98;;;15.50;99.90;;;;;;5011778;28;20534;-75
2021/08/13 02:17:41;;;;;;;21.65;11.68;;;15.40;99.90;;;;;;4991626;28;20033;-75
2021/08/13 02:20:18;;;;;;;18.25;9.93;;;15.30;99.90;;;;;;5006891;28;20208;-75
2021/08/13 02:22:44;;;;;;;19.77;10.25;;;15.30;99.90;;;;;;4996779;28;20096;-75
2021/08/13 02:25:10;;;;;;;19.10;10.07;;;15.30;99.90;;;;;;5009028;28;20414;-75
2021/08/13 02:27:35;;;;;;;18.75;10.43;;;15.30;99.90;;;;;;5012110;28;20073;-76
2021/08/13 02:30:01;;;;;;;19.15;10.63;;;15.30;99.90;;;;;;5013537;28;20104;-75
2021/08/13 02:32:27;;;;;;;21.98;11.05;;;15.30;99.90;;;;;;4994435;28;20033;-75
2021/08/13 02:34:54;;;;;;;21.13;10.85;;;15.20;99.90;;;;;;5003359;28;20029;-75
2021/08/13 02:37:41;;;;;;;21.48;11.57;;;15.20;99.90;;;;;;5008687;28;20389;-75
2021/08/13 02:40:48;;;;;;;22.50;11.95;;;15.20;99.90;;;;;;5010206;28;20029;-76
2021/08/13 02:43:43;;;;;;;21.42;11.80;;;15.10;99.90;;;;;;4976119;28;20073;-75
2021/08/13 02:46:11;;;;;;;20.40;11.48;;;15.20;99.90;;;;;;5003928;28;20033;-76
2021/08/13 02:48:40;;;;;;;20.83;11.88;;;15.30;99.90;;;;;;5009896;28;20389;-75
2021/08/13 02:51:08;;;;;;;20.15;11.32;;;15.20;99.90;;;;;;5009407;28;20445;-76
2021/08/13 02:53:41;;;;;;;20.88;11.13;;;15.40;99.90;;;;;;5004694;28;20134;-75
2021/08/13 02:56:12;;;;;;;19.90;11.27;;;15.50;99.90;;;;;;5008343;28;20057;-76
2021/08/13 02:58:45;;;;;;;19.90;10.13;;;14.80;99.90;;;;;;5007953;28;20036;-75
2021/08/13 03:01:20;;;;;;;17.23;9.50;;;15.70;99.90;;;;;;5008444;28;20021;-75
2021/08/13 03:03:47;;;;;;;17.73;9.85;;;15.80;99.90;;;;;;5003338;28;20030;-76
2021/08/13 03:06:17;;;;;;;18.88;10.30;;;15.60;99.90;;;;;;5009348;28;20045;-75
2021/08/13 03:08:45;;;;;;;19.38;10.02;;;16.60;99.90;;;;;;4998050;28;20026;-75
2021/08/13 03:11:12;;;;;;;21.73;10.15;;;15.80;99.90;;;;;;5010244;28;20100;-75
2021/08/13 03:13:38;;;;;;;21.48;10.48;;;15.70;99.90;;;;;;5016684;28;20041;-75
2021/08/13 03:16:06;;;;;;;16.50;9.90;;;15.90;99.90;;;;;;5012046;28;20101;-75
2021/08/13 03:18:32;;;;;;;20.75;10.32;;;15.70;99.90;;;;;;5009625;28;20025;-75
2021/08/13 03:20:58;;;;;;;19.80;10.27;;;15.50;99.90;;;;;;5009291;28;20398;-75
2021/08/13 03:23:25;;;;;;;19.65;10.30;;;15.50;99.90;;;;;;4993923;28;20017;-75
2021/08/13 03:25:51;;;;;;;18.73;10.05;;;15.70;99.90;;;;;;5004842;28;20033;-75
2021/08/13 03:28:17;;;;;;;20.85;10.57;;;15.60;99.90;;;;;;5009057;28;20389;-75
2021/08/13 03:30:44;;;;;;;20.42;10.20;;;15.40;99.90;;;;;;4993375;28;20037;-75
2021/08/13 03:33:12;;;;;;;18.00;9.52;;;15.10;99.90;;;;;;4991917;28;20037;-75
2021/08/13 03:35:39;;;;;;;17.95;10.48;;;15.00;99.90;;;;;;5010303;28;20037;-75
2021/08/13 03:38:06;;;;;;;20.15;10.18;;;15.00;99.90;;;;;;5007753;28;20064;-75
2021/08/13 03:40:32;;;;;;;16.98;9.93;;;15.20;99.90;;;;;;5006150;28;20450;-76
2021/08/13 03:42:57;;;;;;;22.33;10.30;;;15.00;99.90;;;;;;4988571;28;20042;-76
2021/08/13 03:45:23;;;;;;;18.95;10.40;;;14.90;99.90;;;;;;5007243;28;20030;-75
2021/08/13 03:47:49;;;;;;;18.85;10.55;;;14.90;99.90;;;;;;5004995;28;20054;-75
2021/08/13 03:50:14;;;;;;;23.20;11.95;;;14.80;99.90;;;;;;4988701;28;20486;-75
2021/08/13 03:52:40;;;;;;;20.33;10.40;;;14.80;99.90;;;;;;5007555;28;20049;-75
2021/08/13 03:55:06;;;;;;;20.05;11.40;;;14.90;99.90;;;;;;5006901;28;20022;-75
2021/08/13 03:57:32;;;;;;;22.00;11.25;;;14.90;99.90;;;;;;5007662;28;20046;-74
2021/08/13 03:59:58;;;;;;;23.30;11.77;;;15.20;99.90;;;;;;4989383;28;20064;-74
2021/08/13 04:02:23;;;;;;;21.98;12.38;;;15.20;99.90;;;;;;5008288;28;20475;-76
2021/08/13 04:04:49;;;;;;;21.83;12.05;;;15.30;99.90;;;;;;4990609;28;20025;-74
2021/08/13 04:07:14;;;;;;;21.55;11.38;;;15.40;99.90;;;;;;5002466;28;20080;-76
2021/08/13 04:09:40;;;;;;;19.95;11.43;;;15.30;99.90;;;;;;5004458;28;20496;-76
2021/08/13 04:12:06;;;;;;;20.13;11.88;;;15.20;99.90;;;;;;5007483;28;20079;-76
2021/08/13 04:14:32;;;;;;;23.50;11.68;;;15.20;99.90;;;;;;5005863;28;20034;-76
2021/08/13 04:16:57;;;;;;;24.90;11.98;;;15.10;99.90;;;;;;5007535;28;20076;-76
2021/08/13 04:19:23;;;;;;;20.27;11.40;;;15.10;99.90;;;;;;5005989;28;20042;-76
2021/08/13 04:21:49;;;;;;;19.48;11.13;;;14.90;99.90;;;;;;4989725;28;20033;-75
2021/08/13 04:24:14;;;;;;;22.15;11.50;;;14.90;99.90;;;;;;5007031;28;20014;-76
2021/08/13 04:26:40;;;;;;;19.58;10.60;;;14.80;99.90;;;;;;5003014;28;20040;-78
2021/08/13 04:29:06;;;;;;;19.33;10.52;;;14.80;99.90;;;;;;5004636;28;20026;-75
2021/08/13 04:31:31;;;;;;;20.33;10.70;;;14.70;99.90;;;;;;4989600;28;20040;-75
2021/08/13 04:33:57;;;;;;;20.23;10.90;;;14.80;99.90;;;;;;5007532;28;20041;-76
2021/08/13 04:36:23;;;;;;;20.45;12.02;;;14.80;99.90;;;;;;5010366;28;20064;-75
2021/08/13 04:38:48;;;;;;;21.60;11.48;;;14.90;99.90;;;;;;5007247;28;20104;-75
2021/08/13 04:41:14;;;;;;;25.02;11.70;;;14.90;99.90;;;;;;5005184;28;20057;-76
2021/08/13 04:43:39;;;;;;;22.70;11.50;;;15.00;99.90;;;;;;5009777;28;20113;-76
2021/08/13 04:46:05;;;;;;;23.75;11.73;;;15.30;99.90;;;;;;5010589;28;20054;-75
2021/08/13 04:48:31;;;;;;;18.95;10.18;;;15.20;99.90;;;;;;5013205;28;20034;-76
2021/08/13 04:50:56;;;;;;;20.98;10.75;;;15.30;99.90;;;;;;5007229;28;20041;-75
2021/08/13 04:53:22;;;;;;;19.45;10.82;;;15.30;99.90;;;;;;5007171;28;20042;-75
2021/08/13 04:55:47;;;;;;;21.23;10.32;;;15.30;99.90;;;;;;5008042;28;20108;-74
2021/08/13 04:58:13;;;;;;;22.00;11.27;;;15.50;99.90;;;;;;5005385;28;20473;-74
2021/08/13 05:00:40;;;;;;;20.27;10.75;;;15.80;99.90;;;;;;5010232;28;20037;-73
2021/08/13 05:03:06;;;;;;;20.35;10.88;;;16.00;99.90;;;;;;5007452;28;20108;-75
2021/08/13 05:05:32;;;;;;;20.88;10.75;;;16.30;99.90;;;;;;5008914;28;20030;-76
2021/08/13 05:07:57;;;;;;;21.40;10.30;;;16.40;99.90;;;;;;5006979;28;20072;-76
2021/08/13 05:10:23;;;;;;;18.98;10.57;;;16.40;99.90;;;;;;4993721;28;20026;-75
2021/08/13 05:12:50;;;;;;;18.08;10.20;;;16.30;99.90;;;;;;4992637;28;20034;-75
2021/08/13 05:15:17;;;;;;;16.95;10.00;;;16.30;99.90;;;;;;5008224;28;20117;-75
2021/08/13 05:17:42;;;;;;;19.52;10.25;;;16.30;99.90;;;;;;4989740;28;20061;-74
2021/08/13 05:20:10;;;;;;;18.30;9.95;;;16.40;99.90;;;;;;5009517;28;20084;-74
2021/08/13 05:22:36;;;;;;;20.92;10.05;;;16.40;99.90;;;;;;5010118;28;20540;-74
2021/08/13 05:25:14;;;;;;;19.25;10.07;;;16.40;99.90;;;;;;5009091;28;20034;-74
2021/08/13 05:27:40;;;;;;;17.02;9.80;;;16.60;99.90;;;;;;5006789;28;20053;-75
2021/08/13 05:30:07;;;;;;;23.35;10.63;;;16.70;99.90;;;;;;5009388;28;20022;-74
2021/08/13 05:32:37;;;;;;;19.85;10.30;;;16.90;99.90;;;;;;5010425;28;20073;-69
2021/08/13 05:35:02;;;;;;;21.05;9.90;;;17.30;99.90;;;;;;4991886;28;20032;-69
2021/08/13 05:37:28;;;;;;;18.10;9.98;;;17.40;99.90;;;;;;5007335;28;20125;-68
2021/08/13 05:39:54;;;;;;;20.92;10.43;;;17.80;99.90;;;;;;5007855;28;20033;-69
2021/08/13 05:42:19;;;;;;;18.38;10.13;;;17.80;99.90;;;;;;5004930;28;20066;-68
2021/08/13 05:44:45;;;;;;;17.27;9.35;;;18.10;99.90;;;;;;5010579;28;20033;-68
2021/08/13 05:47:10;;;;;;;18.92;9.75;;;18.20;99.90;;;;;;5008348;28;20026;-68
2021/08/13 05:49:36;;;;;;;17.75;9.48;;;18.40;99.90;;;;;;5007569;28;20022;-67
2021/08/13 05:52:02;;;;;;;17.13;8.82;;;18.60;99.90;;;;;;5008039;28;20022;-67
2021/08/13 05:54:30;;;;;;;17.88;8.38;;;18.80;99.90;;;;;;5008738;28;20041;-70
2021/08/13 05:56:56;;;;;;;16.50;8.00;;;19.20;99.90;;;;;;5006837;28;20517;-69
2021/08/13 05:59:21;;;;;;;14.52;7.32;;;19.40;99.90;;;;;;5008337;28;20038;-69
2021/08/13 06:01:47;;;;;;;15.30;7.80;;;19.50;99.90;;;;;;5007727;28;21266;-69
2021/08/13 06:04:12;;;;;;;16.63;7.75;;;19.70;99.90;;;;;;5007154;28;20034;-72
2021/08/13 06:06:42;;;;;;;14.80;7.68;;;19.70;99.90;;;;;;4996911;28;20109;-71
2021/08/13 06:09:08;;;;;;;15.38;8.52;;;19.80;99.90;;;;;;5008378;28;20037;-72
2021/08/13 06:11:34;;;;;;;18.48;8.48;;;19.80;99.90;;;;;;5010452;28;20510;-71
2021/08/13 06:13:59;;;;;;;14.95;7.65;;;19.80;99.90;;;;;;4992478;28;20033;-72
2021/08/13 06:16:25;;;;;;;14.65;7.50;;;19.90;99.90;;;;;;5011560;28;20387;-70
2021/08/13 06:18:51;;;;;;;18.73;7.88;;;20.00;99.90;;;;;;5009007;28;20053;-72
2021/08/13 06:21:16;;;;;;;18.15;8.07;;;20.10;99.90;;;;;;4993351;28;20045;-71
2021/08/13 06:23:42;;;;;;;16.25;8.25;;;20.10;99.90;;;;;;5003551;28;20080;-72
2021/08/13 06:26:11;;;;;;;18.58;8.80;;;20.10;99.90;;;;;;4999788;28;20406;-73
2021/08/13 06:28:38;;;;;;;18.63;8.27;;;20.20;99.90;;;;;;4985659;28;20033;-72
2021/08/13 06:31:04;;;;;;;18.35;8.88;;;20.30;99.90;;;;;;5004997;28;20054;-72
2021/08/13 06:33:29;;;;;;;17.48;7.18;;;20.90;99.90;;;;;;4987949;28;20100;-72
2021/08/13 06:35:55;;;;;;;13.50;6.93;;;20.90;99.90;;;;;;5004908;28;20120;-72
2021/08/13 06:38:21;;;;;;;16.80;7.68;;;21.00;99.90;;;;;;5004273;28;20030;-70
2021/08/13 06:40:46;;;;;;;13.77;7.13;;;21.00;99.90;;;;;;5004643;28;20053;-72
2021/08/13 06:43:12;;;;;;;15.27;7.15;;;21.20;99.90;;;;;;5004759;28;20037;-72
2021/08/13 06:45:37;;;;;;;16.67;7.80;;;21.40;99.90;;;;;;5005992;28;20502;-72
2021/08/13 06:48:04;;;;;;;14.05;7.07;;;21.50;99.90;;;;;;4986498;28;20043;-72
2021/08/13 06:50:30;;;;;;;14.30;6.97;;;21.80;99.90;;;;;;4988544;28;20034;-72
2021/08/13 06:52:56;;;;;;;13.65;7.03;;;22.10;99.90;;;;;;5007536;28;20078;-73
2021/08/13 06:55:22;;;;;;;14.80;7.10;;;22.40;99.90;;;;;;5006683;28;20017;-72
2021/08/13 06:57:48;;;;;;;14.18;7.47;;;22.60;99.90;;;;;;5007791;28;20040;-72
2021/08/13 07:00:14;;;;;;;13.07;6.70;;;22.80;99.90;;;;;;4989585;28;20556;-72
2021/08/13 07:02:46;;;;;;;13.07;7.05;;;23.00;99.90;;;;;;5007392;28;20402;-72
2021/08/13 07:05:14;;;;;;;15.60;6.72;;;23.10;99.90;;;;;;4990970;28;20102;-73
2021/08/13 07:07:40;;;;;;;15.55;7.18;;;23.10;99.90;;;;;;4989998;28;20034;-72
2021/08/13 07:10:09;;;;;;;15.40;7.20;;;23.00;99.90;;;;;;4975113;28;20044;-73
2021/08/13 07:12:35;;;;;;;14.63;6.72;;;22.90;99.90;;;;;;4992448;28;20030;-72
2021/08/13 07:15:02;;;;;;;15.80;7.10;;;23.20;99.90;;;;;;4993958;28;20450;-73
2021/08/13 07:17:28;;;;;;;14.32;6.90;;;23.40;99.90;;;;;;5008625;28;20034;-73
2021/08/13 07:19:53;;;;;;;14.77;7.20;;;23.40;99.90;;;;;;5011574;28;20445;-73
2021/08/13 07:22:21;;;;;;;13.02;6.97;;;23.60;99.90;;;;;;5016889;28;20474;-73
2021/08/13 07:24:46;;;;;;;15.13;7.35;;;23.80;99.90;;;;;;5005609;28;20036;-73
2021/08/13 07:27:12;;;;;;;15.23;7.50;;;24.00;99.90;;;;;;5018026;28;20036;-73
2021/08/13 07:29:38;;;;;;;15.57;7.10;;;24.30;99.90;;;;;;5011485;28;20037;-73
2021/08/13 07:32:04;;;;;;;13.75;6.40;;;24.70;99.90;;;;;;5009885;28;20022;-72
2021/08/13 07:34:30;;;;;;;14.38;6.72;;;24.80;99.90;;;;;;5011791;28;20015;-72
2021/08/13 07:37:00;;;;;;;14.68;6.78;;;24.40;99.90;;;;;;5019804;28;20061;-73
2021/08/13 07:39:39;;;;;;;11.80;6.57;;;24.30;99.90;;;;;;5032704;28;20108;-72
2021/08/13 07:42:05;;;;;;;16.67;6.20;;;;;;;;;;4975652;28;20083;-73
2021/08/13 07:44:31;;;;;;;14.82;6.78;;;24.50;99.90;;;;;;5008709;28;20021;-73
2021/08/13 07:46:57;;;;;;;14.98;7.78;;;24.60;99.90;;;;;;5008120;28;20539;-72
2021/08/13 07:49:25;;;;;;;14.85;7.05;;;24.70;99.90;;;;;;5012017;28;20248;-71
2021/08/13 07:51:51;;;;;;;13.87;6.97;;;25.10;99.90;;;;;;4979176;28;20034;-72
2021/08/13 07:54:17;;;;;;;14.80;7.07;;;25.00;99.90;;;;;;5007496;28;20049;-75
2021/08/13 07:56:42;;;;;;;13.75;6.75;;;24.70;99.90;;;;;;5009480;28;20026;-74
2021/08/13 07:59:08;;;;;;;13.18;6.78;;;24.70;99.90;;;;;;5014289;28;20017;-72
2021/08/13 08:01:34;;;;;;;13.10;6.40;;;24.70;99.90;;;;;;5011311;28;20036;-71
2021/08/13 08:03:59;;;;;;;11.80;6.18;;;24.90;99.90;;;;;;4988504;28;20026;-72
2021/08/13 08:06:29;;;;;;;14.38;6.63;;;25.00;99.90;;;;;;5005395;28;20100;-72
2021/08/13 08:09:05;;;;;;;12.88;7.07;;;24.80;99.90;;;;;;5004275;28;20034;-72
2021/08/13 08:11:30;;;;;;;13.85;6.90;;;24.70;99.90;;;;;;5017011;28;20040;-72
2021/08/13 08:13:56;;;;;;;13.77;7.28;;;24.90;99.90;;;;;;5007334;28;20571;-72
2021/08/13 08:16:22;;;;;;;13.43;6.63;;;25.00;99.90;;;;;;5010110;28;20017;-72
2021/08/13 08:18:47;;;;;;;14.77;6.32;;;25.10;99.90;;;;;;5009896;28;20639;-72
2021/08/13 08:21:13;;;;;;;15.40;6.55;;;25.20;99.90;;;;;;5010286;28;20105;-72
2021/08/13 08:23:38;;;;;;;14.07;7.30;;;25.50;99.90;;;;;;5008103;28;20057;-72
2021/08/13 08:26:04;;;;;;;13.10;6.60;;;25.50;99.90;;;;;;4992192;28;20021;-72
2021/08/13 08:28:30;;;;;;;15.77;7.40;;;25.70;99.90;;;;;;5009727;28;20040;-73
2021/08/13 08:30:56;;;;;;;14.57;6.72;;;25.50;99.90;;;;;;4990972;28;20042;-72
2021/08/13 08:33:21;;;;;;;11.75;5.60;;;24.90;99.90;;;;;;4991419;28;20406;-72
2021/08/13 08:35:48;;;;;;;16.50;7.13;;;24.70;99.90;;;;;;5008183;28;20037;-71
2021/08/13 08:38:13;;;;;;;12.10;5.68;;;24.70;99.90;;;;;;5009251;28;20113;-71
2021/08/13 08:40:42;;;;;;;15.55;7.68;;;24.90;99.90;;;;;;4993950;28;20445;-71
2021/08/13 08:43:09;;;;;;;12.60;6.75;;;25.20;99.90;;;;;;5003212;28;20030;-69
2021/08/13 08:45:38;;;;;;;13.48;6.88;;;25.30;99.90;;;;;;5009419;28;20051;-71
2021/08/13 08:48:10;;;;;;;14.65;7.22;;;25.00;99.90;;;;;;5008180;28;20076;-71
2021/08/13 08:50:39;;;;;;;13.88;6.43;;;24.90;99.90;;;;;;4992492;28;20090;-71
2021/08/13 08:53:14;;;;;;;16.15;6.75;;;25.00;99.90;;;;;;5012341;28;20038;-71
2021/08/13 08:55:41;;;;;;;14.18;5.68;;;25.30;99.90;;;;;;5008174;28;20026;-72
2021/08/13 08:58:08;;;;;;;12.85;6.50;;;26.40;99.90;;;;;;5007354;28;20034;-72
2021/08/13 09:00:34;;;;;;;15.57;6.65;;;26.80;99.90;;;;;;4995813;28;20033;-71
2021/08/13 09:03:00;;;;;;;13.77;6.93;;;26.90;99.90;;;;;;5009821;28;20033;-71
2021/08/13 09:05:26;;;;;;;13.43;6.85;;;26.00;99.90;;;;;;5009460;28;20022;-71
2021/08/13 09:07:52;;;;;;;13.27;6.68;;;24.90;99.90;;;;;;5010917;28;20109;-71
2021/08/13 09:10:17;;;;;;;13.75;5.68;;;24.90;99.90;;;;;;5010045;28;20030;-72
2021/08/13 09:12:43;;;;;;;16.27;7.43;;;25.50;99.90;;;;;;5010669;28;20021;-72
2021/08/13 09:15:29;;;;;;;16.58;7.32;;;26.30;99.90;;;;;;5011189;28;20022;-72
2021/08/13 09:18:11;;;;;;;13.48;6.63;;;27.20;99.90;;;;;;5010676;28;20044;-71
2021/08/13 09:20:39;;;;;;;14.55;6.85;;;27.30;99.90;;;;;;5008408;28;20547;-72
2021/08/13 09:23:04;;;;;;;15.38;6.30;;;27.10;99.90;;;;;;4996835;28;20036;-72
2021/08/13 09:25:30;;;;;;;15.98;7.68;;;26.60;99.90;;;;;;5006106;28;20445;-72
2021/08/13 09:27:56;;;;;;;15.43;6.93;;;26.50;99.90;;;;;;5008649;28;20030;-71
2021/08/13 09:30:21;;;;;;;17.50;8.15;;;25.60;99.90;;;;;;5011152;28;20033;-71
2021/08/13 09:33:05;;;;;;;19.13;8.27;;;25.70;99.90;;;;;;5006428;28;20544;-71
2021/08/13 09:35:41;;;;;;;15.57;8.05;;;25.80;99.90;;;;;;4992359;28;20046;-72
2021/08/13 09:38:14;;;;;;;18.40;9.15;;;26.20;99.90;;;;;;5006192;28;20100;-71
2021/08/13 09:40:43;;;;;;;17.08;8.88;;;26.40;99.90;;;;;;5007064;28;20034;-71
2021/08/13 09:43:09;;;;;;;20.63;9.77;;;26.20;99.90;;;;;;5003274;28;20084;-72
2021/08/13 09:45:35;;;;;;;24.80;9.60;;;25.50;99.90;;;;;;5006816;28;20034;-72
2021/08/13 09:48:01;;;;;;;20.05;10.05;;;25.40;99.90;;;;;;4984212;28;20033;-71
2021/08/13 09:50:53;;;;;;;18.38;9.57;;;25.20;99.90;;;;;;5006670;28;20096;-71
2021/08/13 09:53:18;;;;;;;17.17;9.48;;;24.90;99.90;;;;;;5003677;28;20088;-71
2021/08/13 09:55:44;;;;;;;20.75;10.45;;;24.80;99.90;;;;;;5007628;28;20053;-71
2021/08/13 09:58:11;;;;;;;20.05;9.50;;;24.70;99.90;;;;;;5001071;28;20052;-71
2021/08/13 10:00:45;;;;;;;19.08;7.78;;;25.10;99.90;;;;;;5008384;28;20029;-71
2021/08/13 10:03:11;;;;;;;19.40;10.18;;;25.20;99.90;;;;;;5003317;28;20029;-71
2021/08/13 10:05:37;;;;;;;22.52;9.98;;;25.70;99.90;;;;;;5006694;28;20018;-71
2021/08/13 10:08:05;;;;;;;17.13;8.80;;;25.90;99.90;;;;;;4988055;28;20092;-71
2021/08/13 10:10:41;;;;;;;20.48;10.20;;;26.10;99.90;;;;;;5012790;28;20536;-71
2021/08/13 10:13:09;;;;;;;19.73;11.00;;;26.40;99.90;;;;;;4991034;28;20545;-71
2021/08/13 10:15:39;;;;;;;17.42;8.40;;;26.70;99.90;;;;;;5006492;28;20034;-71
2021/08/13 10:18:10;;;;;;;23.48;9.02;;;27.00;99.90;;;;;;5007093;28;20056;-71
2021/08/13 10:20:38;;;;;;;24.50;10.90;;;27.20;99.90;;;;;;4989391;28;20450;-71
2021/08/13 10:23:04;;;;;;;22.92;9.80;;;27.60;99.90;;;;;;5006650;28;20025;-71
2021/08/13 10:25:30;;;;;;;21.05;10.45;;;27.90;99.90;;;;;;5008511;28;20812;-71
2021/08/13 10:27:56;;;;;;;19.83;10.40;;;28.00;99.90;;;;;;5007838;28;20476;-71
2021/08/13 10:30:23;;;;;;;18.40;10.85;;;28.30;99.90;;;;;;5009799;28;20042;-71
2021/08/13 10:32:52;;;;;;;21.58;10.88;;;27.70;99.90;;;;;;5010603;28;20097;-71
2021/08/13 10:35:18;;;;;;;20.83;10.10;;;27.80;99.90;;;;;;5007218;28;20050;-71
2021/08/13 10:37:45;;;;;;;20.67;10.07;;;27.30;99.90;;;;;;5007669;28;20021;-71
2021/08/13 10:40:12;;;;;;;20.80;11.18;;;26.90;99.90;;;;;;4989556;28;20029;-71
2021/08/13 10:42:41;;;;;;;19.48;10.05;;;27.30;99.90;;;;;;5007642;28;20034;-72
2021/08/13 10:45:09;;;;;;;22.27;10.57;;;27.90;99.90;;;;;;5007201;28;20041;-71
2021/08/13 10:47:37;;;;;;;21.77;10.80;;;27.70;99.90;;;;;;5004865;28;20026;-71
2021/08/13 10:50:05;;;;;;;21.70;11.18;;;27.90;99.90;;;;;;5007551;28;20056;-71
2021/08/13 10:52:39;;;;;;;20.40;11.65;;;27.70;99.90;;;;;;5006816;28;20152;-71
2021/08/13 10:55:07;;;;;;;20.13;10.93;;;27.60;99.90;;;;;;5008148;28;20026;-71
2021/08/13 10:57:47;;;;;;;20.50;10.52;;;27.50;99.90;;;;;;5010832;28;20087;-71
2021/08/13 11:00:14;;;;;;;20.42;8.60;;;28.20;99.90;;;;;;5010989;28;20076;-71
2021/08/13 11:02:39;;;;;;;19.92;10.70;;;27.80;99.90;;;;;;4989619;28;20069;-71
2021/08/13 11:05:05;;;;;;;19.52;9.98;;;27.90;99.90;;;;;;5006574;28;20058;-71
2021/08/13 11:07:58;;;;;;;18.30;9.10;;;27.80;99.90;;;;;;5006620;28;20485;-71
2021/08/13 11:10:38;;;;;;;16.85;8.60;;;28.00;99.90;;;;;;5001738;28;20018;-71
2021/08/13 11:13:14;;;;;;;18.48;10.65;;;27.90;99.90;;;;;;5003184;28;20114;-71
2021/08/13 11:15:40;;;;;;;15.88;8.73;;;28.00;99.90;;;;;;5010690;28;20033;-71
2021/08/13 11:18:33;;;;;;;19.40;9.02;;;28.40;99.90;;;;;;4988477;28;20042;-71
2021/08/13 11:21:01;;;;;;;19.02;8.88;;;27.30;99.90;;;;;;4966223;28;20114;-71
2021/08/13 11:23:27;;;;;;;17.02;7.78;;;27.00;99.90;;;;;;4969028;28;20033;-71
2021/08/13 11:25:54;;;;;;;17.10;8.95;;;26.50;99.90;;;;;;4970929;28;20026;-71
2021/08/13 11:28:26;;;;;;;20.05;10.02;;;26.40;99.90;;;;;;4967729;28;20597;-72
2021/08/13 11:30:55;;;;;;;17.65;7.60;;;27.30;99.90;;;;;;4966064;28;20507;-71
2021/08/13 11:33:27;;;;;;;19.90;10.82;;;28.40;99.90;;;;;;4966975;28;20034;-71
2021/08/13 11:35:57;;;;;;;20.15;9.43;;;28.50;99.90;;;;;;4980073;28;20030;-71
2021/08/13 11:38:41;;;;;;;22.02;9.18;;;28.10;99.90;;;;;;4967606;28;20078;-71
2021/08/13 11:41:22;;;;;;;17.45;8.05;;;28.40;99.90;;;;;;4964419;28;20533;-71
2021/08/13 11:43:59;;;;;;;16.27;7.93;;;27.90;99.90;;;;;;4969754;28;20570;-71
2021/08/13 11:46:32;;;;;;;16.95;6.68;;;28.00;99.90;;;;;;4971009;28;20030;-71
2021/08/13 11:49:00;;;;;;;17.58;6.93;;;27.60;99.90;;;;;;4972204;28;20070;-71
2021/08/13 11:51:27;;;;;;;16.00;6.85;;;27.80;99.80;;;;;;4970265;28;20031;-72
2021/08/13 11:53:55;;;;;;;13.85;6.38;;;27.40;99.90;;;;;;4971547;28;20039;-71
2021/08/13 11:56:22;;;;;;;13.15;5.97;;;27.70;99.90;;;;;;4971119;28;20081;-72
2021/08/13 11:59:05;;;;;;;11.45;6.07;;;28.30;99.60;;;;;;4972089;28;20038;-72
2021/08/13 12:01:52;;;;;;;13.55;6.63;;;28.30;98.80;;;;;;4966070;28;20577;-72
2021/08/13 12:04:25;;;;;;;13.57;6.55;;;28.70;99.60;;;;;;4965380;28;20046;-72
2021/08/13 12:06:59;;;;;;;12.18;5.95;;;28.70;98.50;;;;;;4964514;28;20490;-71
2021/08/13 12:09:44;;;;;;;11.15;5.55;;;28.30;98.40;;;;;;4969305;28;20512;-72
2021/08/13 12:12:12;;;;;;;11.77;5.18;;;28.20;98.70;;;;;;4971058;28;20027;-71
2021/08/13 12:14:39;;;;;;;14.73;5.93;;;27.20;99.90;;;;;;4966082;28;20044;-72
2021/08/13 12:17:05;;;;;;;11.25;4.85;;;27.10;99.80;;;;;;4968580;28;20418;-72
2021/08/13 12:19:33;;;;;;;11.50;5.43;;;26.70;99.90;;;;;;4981824;28;20046;-71
2021/08/13 12:22:02;;;;;;;10.40;5.22;;;28.00;99.30;;;;;;5002689;28;20034;-72
2021/08/13 12:24:38;;;;;;;10.32;4.82;;;28.10;98.70;;;;;;5008207;28;20022;-72
2021/08/13 12:27:09;;;;;;;11.90;5.50;;;28.30;98.70;;;;;;5008087;28;20057;-72
2021/08/13 12:29:37;;;;;;;11.73;5.72;;;27.80;98.70;;;;;;4993839;28;20028;-72
2021/08/13 12:32:05;;;;;;;10.60;4.80;;;27.30;99.60;;;;;;5008725;28;20037;-72
2021/08/13 12:34:33;;;;;;;11.52;5.20;;;27.90;99.40;;;;;;5010621;28;20387;-72
2021/08/13 12:37:10;;;;;;;9.00;3.85;;;27.80;99.00;;;;;;5009285;28;20057;-72
2021/08/13 12:39:40;;;;;;;9.50;4.38;;;27.10;99.70;;;;;;5006320;28;20556;-72